Search for airport 
image banner adimage banner adimage banner ad
image banner ad

PN30 - Schrenkel

Located in Cassville, United States

ICAO - PN30, IATA -

Data provided by Airmate  

General information

Coordinates: N40°15'46" W78°6'9"
Elevation is 1200 feet MSL.
Magnetic variation is -10° East
View others Airports in Pennsylvania

Operational data

Special qualification required
Current time UTC:
Current local time:
Weather at : KAOO - Altoona-Blair County ( 19 km )
METAR: KAOO 092328Z AUTO 00000KT 2 1/2SM RA BR FEW003 FEW009 OVC042 07/06 A2975 RMK AO2 P0006 T00720056
TAF: KAOO 092126Z 0921/1018 12010KT 4SM -RA BR OVC020 FM092300 10006KT 2SM -RA OVC009 FM100700 36008KT P6SM OVC015 FM101500 34009G15KT P6SM OVC050
View NOTAMs / SUP AIP / TFR affecting this airport [VIEW]
Communications frequencies: [VIEW]

Runways:

RWY identifierQFULength (ft)Width (ft)SurfaceLDA (ft)
172200100GRASS
352200100GRASS

Airport contact information

Address: Cassville United States

Satellite view of PN30